• Join FlightAware (Why Join?)
  • Login
  • US Flag 
06:31AM EDT


 

Airport Tracker/Info


-or-


 

Live Flight TrackerFlight Track Log ✈ N1944E ✈ 15-Aug-2013 ✈ KJAC - KCOD

Flight Track Log - Related Links

Times and Time Zones

All times are in EDT time to prevent confusion due to time zone crossing. See the N1944E flight status page for this flight to view local times or setup timezone preferences in your user account.

Time Position Orientation Groundspeed Altitude Reporting Facility
EDT Latitude Longitude Course Direction KTS MPH feet Rate Location/Type
08:56PM 43.5447 -110.7772 210° Southwest 135 155 8,100  Level Salt Lake Center
08:57PM 43.5083 -110.8022 206° Southwest 140 161 9,100 900 Climbing Salt Lake Center
08:59PM 43.7974 -110.3891 53° Northeast  Level Estimated
08:59PM 43.4725 -110.8253 205° Southwest 142 163 10,000  Level Salt Lake Center
09:00PM 43.8290 -110.3308 53° Northeast  Level Estimated
09:00PM 43.4364 -110.8497 206° Southwest 143 165 11,000  Level Salt Lake Center
09:01PM 43.8605 -110.2724 53° Northeast  Level Estimated
09:01PM 43.3967 -110.8758 206° Southwest 153 176 12,100  Level Salt Lake Center
09:02PM 43.3606 -110.8967 203° Southwest 147 169 13,200 1,080 Climbing Salt Lake Center
09:03PM 43.3533 -110.8450 101° East 177 204 14,400 1,020 Climbing Salt Lake Center
09:04PM 43.3847 -110.8033 44° Northeast 160 184 15,400 900 Climbing Salt Lake Center
09:05PM 43.4167 -110.7600 45° Northeast 162 186 16,300 780 Climbing Salt Lake Center
09:06PM 43.4539 -110.7208 37° Northeast 167 192 17,100 360 Climbing Salt Lake Center
09:07PM 43.4894 -110.6617 50° Northeast 204 235 17,100  Level Salt Lake Center
09:08PM 43.5381 -110.5964 44° Northeast 207 238 17,100 -60 Level Salt Lake Center
09:09PM 43.5761 -110.5408 47° Northeast 202 232 17,000  Descending Salt Lake Center
09:10PM 43.6100 -110.4778 53° Northeast 205 236 17,200  Climbing Salt Lake Center
09:11PM 43.6486 -110.4222 46° Northeast 202 232 17,100 -60 Descending Salt Lake Center
09:12PM 43.6906 -110.3686 43° Northeast 204 235 17,100  Level Salt Lake Center
09:13PM 43.7294 -110.3108 47° Northeast 206 237 17,100  Level Salt Lake Center
09:14PM 43.7758 -110.2403 48° Northeast 208 239 17,100 -120 Level Salt Lake Center
09:15PM 43.8167 -110.1817 46° Northeast 210 242 16,900 -60 Descending Salt Lake Center
09:16PM 43.8547 -110.1250 47° Northeast 204 235 17,000  Climbing Salt Lake Center
09:17PM 43.8928 -110.0692 47° Northeast 202 232 17,000 -60 Level Salt Lake Center
09:18PM 43.9344 -110.0103 45° Northeast 199 229 16,900  Descending Salt Lake Center
09:19PM 43.9714 -109.9561 47° Northeast 200 230 17,000  Climbing Salt Lake Center
09:20PM 44.0156 -109.8956 45° Northeast 200 230 17,000 -240 Level Salt Lake Center
09:21PM 44.0517 -109.8422 47° Northeast 199 229 16,600 -480 Descending Salt Lake Center
09:22PM 44.0903 -109.7808 49° Northeast 213 245 16,100 -840 Descending Salt Lake Center
09:23PM 44.1328 -109.7053 52° Northeast 220 253 15,000 -540 Descending Salt Lake Center
09:24PM 44.1733 -109.6428 48° Northeast 225 259 15,000  Level Salt Lake Center
09:25PM 44.2181 -109.5803 45° Northeast 210 242 15,000  Level Salt Lake Center